Time;durP1;ratioP1;P1;durP2;ratioP2;P2;SDS_P1;SDS_P2;PMS_P1;PMS_P2;Temp;Humidity;BMP_temperature;BMP_pressure;BME280_temperature;BME280_humidity;BME280_pressure;Samples;Min_cycle;Max_cycle;Signal;HPM_P1;HPM_P2
2022/10/06 00:00:11;;;;;;;14.32;9.52;;;;;;;10.87;100.00;100068.63;5072975;28;20374;-76
2022/10/06 00:02:36;;;;;;;13.20;9.50;;;;;;;10.91;100.00;100079.75;5073090;28;20122;-76
2022/10/06 00:05:02;;;;;;;13.15;9.68;;;;;;;10.91;100.00;100079.75;5072665;28;20078;-76
2022/10/06 00:07:28;;;;;;;15.02;10.18;;;;;;;10.96;100.00;100088.25;5073204;28;20485;-76
2022/10/06 00:09:53;;;;;;;13.82;9.75;;;;;;;10.94;100.00;100084.84;5073023;28;20107;-76
2022/10/06 00:12:18;;;;;;;16.65;11.10;;;;;;;10.96;100.00;100083.03;5073124;28;20016;-76
2022/10/06 00:14:44;;;;;;;18.25;11.13;;;;;;;10.91;100.00;100074.53;5072969;28;20020;-76
2022/10/06 00:17:09;;;;;;;13.13;9.93;;;;;;;10.99;100.00;100088.09;5073108;28;20024;-76
2022/10/06 00:19:34;;;;;;;16.45;11.10;;;;;;;10.91;100.00;100069.31;5072743;28;20016;-76
2022/10/06 00:22:00;;;;;;;13.10;10.35;;;;;;;10.90;100.00;100078.06;5072972;28;20025;-76
2022/10/06 00:24:26;;;;;;;13.93;10.98;;;;;;;10.86;100.00;100077.31;5072804;28;20502;-76
2022/10/06 00:26:51;;;;;;;13.02;10.10;;;;;;;10.88;100.00;100088.56;5072696;28;20363;-76
2022/10/06 00:29:17;;;;;;;16.95;10.93;;;;;;;10.91;100.00;100084.94;5072425;28;20055;-76
2022/10/06 00:31:42;;;;;;;16.50;10.82;;;;;;;10.87;100.00;100081.66;5072489;28;20016;-76
2022/10/06 00:34:08;;;;;;;18.30;11.07;;;;;;;10.87;100.00;100086.00;5072212;28;20116;-76
2022/10/06 00:36:34;;;;;;;16.23;10.38;;;;;;;10.82;100.00;100082.72;5072636;28;20044;-76
2022/10/06 00:38:59;;;;;;;13.93;10.63;;;;;;;10.82;100.00;100074.91;5072657;28;20371;-76
2022/10/06 00:41:24;;;;;;;17.33;12.60;;;;;;;10.79;100.00;100078.50;5072229;28;20024;-76
2022/10/06 00:43:52;;;;;;;18.63;13.73;;;;;;;10.80;100.00;100088.00;5072489;28;20464;-76
2022/10/06 00:46:24;;;;;;;17.00;12.70;;;;;;;10.85;100.00;100093.03;5072133;28;20024;-76
2022/10/06 00:48:55;;;;;;;17.02;11.93;;;;;;;10.79;100.00;100081.13;5072541;28;20089;-76
2022/10/06 00:51:21;;;;;;;19.85;13.68;;;;;;;10.81;100.00;100087.09;5072231;28;20572;-76
2022/10/06 00:53:47;;;;;;;24.67;14.93;;;;;;;10.76;100.00;100077.78;5072128;28;20149;-76
2022/10/06 00:56:13;;;;;;;22.42;15.05;;;;;;;10.80;100.00;100087.16;5071977;28;20032;-76
2022/10/06 00:58:38;;;;;;;21.63;14.80;;;;;;;10.77;100.00;100089.88;5072217;28;20032;-76
2022/10/06 01:01:04;;;;;;;20.95;15.02;;;;;;;10.74;100.00;100085.63;5071922;28;20027;-76
2022/10/06 01:03:37;;;;;;;21.58;14.38;;;;;;;10.67;100.00;100068.59;5072453;28;20024;-76
2022/10/06 01:06:03;;;;;;;26.80;15.23;;;;;;;10.62;100.00;100071.38;5072140;28;20047;-76
2022/10/06 01:08:30;;;;;;;19.98;14.60;;;;;;;10.60;100.00;100081.00;5072292;28;20113;-76
2022/10/06 01:10:55;;;;;;;22.73;15.57;;;;;;;10.54;100.00;100069.97;5072051;28;20025;-76
2022/10/06 01:13:22;;;;;;;19.67;14.25;;;;;;;10.59;100.00;100089.72;5071706;28;20025;-76
2022/10/06 01:16:18;;;;;;;19.15;13.25;;;;;;;10.60;100.00;100082.75;5071963;28;20070;-76
2022/10/06 01:18:46;;;;;;;21.38;14.27;;;;;;;10.61;100.00;100097.47;5072132;28;20024;-76
2022/10/06 01:21:38;;;;;;;20.90;13.98;;;;;;;10.57;100.00;100094.13;5071773;28;20027;-76
2022/10/06 01:24:04;;;;;;;16.98;12.20;;;;;;;10.52;100.00;100087.41;5071313;28;20040;-76
2022/10/06 01:26:35;;;;;;;22.17;13.85;;;;;;;10.54;100.00;100096.88;5072040;28;20021;-76
2022/10/06 01:29:00;;;;;;;20.80;13.20;;;;;;;10.42;100.00;100074.75;5072000;28;20016;-76
2022/10/06 01:31:26;;;;;;;18.58;12.13;;;;;;;10.45;100.00;100087.66;5071830;28;20487;-76
2022/10/06 01:33:53;;;;;;;15.82;11.93;;;;;;;10.49;100.00;100093.56;5071788;28;20023;-76
2022/10/06 01:36:19;;;;;;;17.55;11.48;;;;;;;10.42;100.00;100089.53;5071519;28;20384;-76
2022/10/06 01:38:44;;;;;;;14.23;10.40;;;;;;;10.40;100.00;100091.34;5071950;28;20103;-76
2022/10/06 01:41:10;;;;;;;13.90;10.05;;;;;;;10.40;100.00;100089.56;5071714;28;20478;-76
2022/10/06 01:43:35;;;;;;;15.25;10.45;;;;;;;10.41;100.00;100095.66;5071816;28;20020;-76
2022/10/06 01:46:00;;;;;;;17.08;11.68;;;;;;;10.34;100.00;100091.59;5071753;28;20031;-76
2022/10/06 01:48:26;;;;;;;16.13;9.32;;;;;;;10.30;100.00;100088.25;5071402;28;20027;-76
2022/10/06 01:50:51;;;;;;;15.20;10.63;;;;;;;10.33;100.00;100102.91;5072159;28;20119;-76
2022/10/06 01:53:17;;;;;;;14.77;9.55;;;;;;;10.23;100.00;100089.34;5075333;28;20024;-76
2022/10/06 01:55:43;;;;;;;20.42;11.52;;;;;;;10.28;100.00;100105.69;5075744;28;20021;-76
2022/10/06 01:58:10;;;;;;;19.98;11.90;;;;;;;10.26;100.00;100114.47;5075458;28;20090;-76
2022/10/06 02:00:35;;;;;;;17.77;12.70;;;;;;;10.21;100.00;100107.63;5075650;28;20099;-76
2022/10/06 02:03:01;;;;;;;16.70;11.20;;;;;;;10.10;100.00;100093.31;5075461;28;20028;-76
2022/10/06 02:05:26;;;;;;;14.38;10.00;;;;;;;10.18;100.00;100112.09;5073810;28;20553;-76
2022/10/06 02:07:51;;;;;;;16.05;10.75;;;;;;;10.15;100.00;100115.66;5075293;28;20020;-76
2022/10/06 02:10:17;;;;;;;15.73;10.20;;;;;;;10.15;100.00;100125.22;5075147;28;20108;-76
2022/10/06 02:12:42;;;;;;;13.43;9.60;;;;;;;10.11;100.00;100123.66;5075233;28;20496;-76
2022/10/06 02:15:09;;;;;;;15.50;10.07;;;;;;;10.04;100.00;100112.63;5074962;28;20020;-76
2022/10/06 02:17:36;;;;;;;15.88;10.07;;;;;;;10.09;100.00;100125.47;5075187;28;20024;-76
2022/10/06 02:20:05;;;;;;;14.60;9.40;;;;;;;10.00;100.00;100111.03;5075150;28;20028;-76
2022/10/06 02:22:30;;;;;;;14.40;10.18;;;;;;;10.02;100.00;100109.22;5075123;28;20020;-76
2022/10/06 02:24:56;;;;;;;13.15;9.30;;;;;;;10.07;100.00;100119.44;5075473;28;20081;-76
2022/10/06 02:27:21;;;;;;;16.60;9.55;;;;;;;10.04;100.00;100125.66;5074860;28;20013;-76
2022/10/06 02:29:48;;;;;;;14.48;9.48;;;;;;;9.99;100.00;100115.41;5074988;28;20025;-76
2022/10/06 02:32:13;;;;;;;11.82;9.48;;;;;;;10.02;100.00;100124.84;5074978;28;20020;-76
2022/10/06 02:34:38;;;;;;;13.48;9.13;;;;;;;10.02;100.00;100126.59;5074826;28;20359;-76
2022/10/06 02:37:04;;;;;;;14.20;9.45;;;;;;;9.96;100.00;100125.06;5074726;28;20360;-76
2022/10/06 02:39:29;;;;;;;14.82;9.98;;;;;;;9.94;100.00;100127.75;5074633;28;20016;-75
2022/10/06 02:41:55;;;;;;;16.55;9.15;;;;;;;9.97;100.00;100134.56;5075068;28;20016;-76
2022/10/06 02:44:20;;;;;;;12.85;9.18;;;;;;;9.97;100.00;100142.38;5074790;28;20394;-76
2022/10/06 02:46:47;;;;;;;11.88;9.05;;;;;;;10.02;100.00;100150.84;5074636;28;20040;-76
2022/10/06 02:49:12;;;;;;;13.75;9.23;;;;;;;10.05;100.00;100142.94;5074336;28;20130;-76
2022/10/06 02:51:37;;;;;;;11.20;8.57;;;;;;;10.03;100.00;100144.78;5074359;28;20109;-76
2022/10/06 02:54:03;;;;;;;13.90;9.25;;;;;;;9.99;100.00;100137.97;5074534;28;20391;-76
2022/10/06 02:56:28;;;;;;;14.10;8.82;;;;;;;10.04;100.00;100153.44;5074172;28;20082;-76
2022/10/06 02:58:54;;;;;;;13.73;8.52;;;;;;;10.00;100.00;100142.28;5074420;28;20025;-76
2022/10/06 03:01:22;;;;;;;12.60;8.98;;;;;;;10.02;100.00;100144.81;5074202;28;20017;-76
2022/10/06 03:03:48;;;;;;;12.25;7.90;;;;;;;10.02;100.00;100145.66;5073506;28;20028;-76
2022/10/06 03:06:22;;;;;;;9.63;8.25;;;;;;;10.06;100.00;100156.81;5073992;28;20098;-76
2022/10/06 03:08:59;;;;;;;9.80;8.30;;;;;;;10.02;100.00;100147.41;5074026;28;20460;-76
2022/10/06 03:11:30;;;;;;;9.63;8.20;;;;;;;10.06;100.00;100156.81;5073854;28;20491;-76
2022/10/06 03:13:56;;;;;;;11.63;7.50;;;;;;;9.99;100.00;100153.59;5074071;28;20017;-76
2022/10/06 03:16:22;;;;;;;11.23;7.78;;;;;;;10.08;100.00;100163.66;5073816;28;20047;-76
2022/10/06 03:18:49;;;;;;;12.63;8.88;;;;;;;10.06;100.00;100173.25;5074223;28;20031;-76
2022/10/06 03:21:19;;;;;;;12.82;10.07;;;;;;;10.07;100.00;100176.72;5073574;28;20028;-76
2022/10/06 03:23:46;;;;;;;10.40;8.80;;;;;;;10.00;100.00;100163.94;5074004;28;20020;-76
2022/10/06 03:26:16;;;;;;;11.77;8.23;;;;;;;9.96;100.00;100170.16;5073631;28;20035;-76
2022/10/06 03:28:42;;;;;;;12.57;9.63;;;;;;;9.94;100.00;100168.50;5073885;28;20017;-76
2022/10/06 03:31:08;;;;;;;14.85;9.82;;;;;;;9.93;100.00;100170.25;5073810;28;20024;-76
2022/10/06 03:33:33;;;;;;;10.60;9.07;;;;;;;9.94;100.00;100181.50;5073691;28;20031;-76
2022/10/06 03:36:08;;;;;;;12.02;9.57;;;;;;;9.96;100.00;100184.91;5074251;28;20028;-76
2022/10/06 03:38:34;;;;;;;15.85;11.23;;;;;;;9.87;100.00;100175.69;5073461;28;20161;-76
2022/10/06 03:41:08;;;;;;;17.17;11.20;;;;;;;9.90;100.00;100188.59;5073630;28;20028;-76
2022/10/06 03:43:34;;;;;;;16.23;11.93;;;;;;;9.89;100.00;100189.47;5073210;28;20119;-76
2022/10/06 03:46:00;;;;;;;17.15;12.35;;;;;;;9.83;100.00;100191.47;5073652;28;20043;-76
2022/10/06 03:48:32;;;;;;;14.73;11.20;;;;;;;9.79;100.00;100180.31;5073356;28;20013;-76
2022/10/06 03:51:12;;;;;;;16.63;12.60;;;;;;;9.83;100.00;100196.66;5073492;28;20032;-76
2022/10/06 03:53:38;;;;;;;17.85;12.18;;;;;;;9.78;100.00;100189.03;5073278;28;20043;-76
2022/10/06 03:56:10;;;;;;;17.80;12.50;;;;;;;9.78;100.00;100193.38;5073240;28;20067;-76
2022/10/06 03:58:38;;;;;;;16.80;11.55;;;;;;;9.75;100.00;100197.78;5072944;28;20112;-76
2022/10/06 04:01:09;;;;;;;16.38;11.73;;;;;;;9.79;100.00;100208.94;5073294;28;20100;-76
2022/10/06 04:03:35;;;;;;;16.50;12.30;;;;;;;9.78;100.00;100207.22;5072935;28;20047;-76
2022/10/06 04:06:04;;;;;;;18.48;13.25;;;;;;;9.78;100.00;100215.03;5073116;28;20048;-76
2022/10/06 04:08:31;;;;;;;17.60;12.52;;;;;;;9.70;100.00;100204.88;5072748;28;20024;-76
2022/10/06 04:11:12;;;;;;;19.63;12.95;;;;;;;9.68;100.00;100211.88;5072837;28;20121;-76
2022/10/06 04:13:38;;;;;;;18.90;12.82;;;;;;;9.70;100.00;100215.28;5072894;28;20020;-76
2022/10/06 04:16:22;;;;;;;21.33;13.95;;;;;;;9.68;100.00;100218.84;5072067;28;20478;-76
2022/10/06 04:18:55;;;;;;;20.30;14.60;;;;;;;9.60;100.00;100210.44;5072801;28;20021;-76
2022/10/06 04:21:22;;;;;;;19.52;13.13;;;;;;;9.59;100.00;100208.75;5072510;28;20421;-76
2022/10/06 04:23:47;;;;;;;19.65;12.77;;;;;;;9.59;100.00;100220.00;5072714;28;20028;-76
2022/10/06 04:26:15;;;;;;;22.75;12.98;;;;;;;9.55;100.00;100215.81;5072660;28;20046;-76
2022/10/06 04:28:42;;;;;;;17.73;13.57;;;;;;;9.54;100.00;100221.06;5072654;28;20058;-76
2022/10/06 04:31:19;;;;;;;21.83;12.93;;;;;;;9.54;100.00;100226.25;5072615;28;20028;-76
2022/10/06 04:33:46;;;;;;;19.23;12.50;;;;;;;9.53;100.00;100229.78;5072441;28;20024;-76
2022/10/06 04:36:21;;;;;;;21.38;13.30;;;;;;;9.49;100.00;100227.25;5072527;28;20029;-76
2022/10/06 04:38:47;;;;;;;23.60;13.23;;;;;;;9.56;100.00;100237.44;5072731;28;20054;-76
2022/10/06 04:41:15;;;;;;;22.08;14.27;;;;;;;9.56;100.00;100242.66;5072742;28;20039;-76
2022/10/06 04:43:43;;;;;;;21.42;12.50;;;;;;;9.50;100.00;100233.31;5072448;28;20043;-76
2022/10/06 04:46:09;;;;;;;15.02;11.13;;;;;;;9.50;100.00;100234.16;5072321;28;20095;-76
2022/10/06 04:48:34;;;;;;;23.80;12.85;;;;;;;9.61;100.00;100251.19;5072111;28;20233;-76
2022/10/06 04:51:02;;;;;;;19.20;12.63;;;;;;;9.59;100.00;100238.19;5071285;28;20073;-76
2022/10/06 04:53:29;;;;;;;20.88;13.15;;;;;;;9.66;100.00;100247.50;5072261;28;20025;-76
2022/10/06 04:55:58;;;;;;;22.73;12.10;;;;;;;9.77;100.00;100259.28;5072357;28;20020;-76
2022/10/06 04:58:25;;;;;;;22.90;13.05;;;;;;;9.75;100.00;100251.56;5071861;28;20111;-76
2022/10/06 05:00:50;;;;;;;23.88;12.95;;;;;;;9.82;100.00;100273.88;5072367;28;20024;-76
2022/10/06 05:03:16;;;;;;;18.75;13.18;;;;;;;9.87;100.00;100269.34;5072073;28;20486;-76
2022/10/06 05:05:41;;;;;;;22.02;12.02;;;;;;;9.93;100.00;100276.09;5071752;28;20047;-76
2022/10/06 05:08:06;;;;;;;19.48;13.10;;;;;;;10.04;100.00;100273.13;5072095;28;20024;-76
2022/10/06 05:10:32;;;;;;;18.55;12.30;;;;;;;10.04;100.00;100271.38;5071789;28;20024;-76
2022/10/06 05:12:57;;;;;;;17.80;12.23;;;;;;;10.09;100.00;100281.63;5071967;28;20020;-76
2022/10/06 05:15:23;;;;;;;18.50;12.82;;;;;;;10.13;100.00;100294.47;5071655;28;20028;-76
2022/10/06 05:17:48;;;;;;;18.95;12.75;;;;;;;10.10;100.00;100289.38;5072177;28;20020;-76
2022/10/06 05:20:14;;;;;;;20.45;13.68;;;;;;;10.06;100.00;100286.94;5071950;28;20028;-76
2022/10/06 05:22:40;;;;;;;30.63;17.40;;;;;;;10.06;100.00;100289.53;5071706;28;20027;-76
2022/10/06 05:25:05;;;;;;;28.17;17.15;;;;;;;10.05;100.00;100288.69;5071886;28;20020;-76
2022/10/06 05:27:31;;;;;;;38.20;21.48;;;;;;;10.03;100.00;100290.50;5071472;28;20024;-76
2022/10/06 05:29:56;;;;;;;45.00;24.55;;;;;;;10.11;100.00;100304.13;5071621;28;20021;-76
2022/10/06 05:32:22;;;;;;;37.70;24.10;;;;;;;10.11;100.00;100305.84;5071703;28;20044;-76
2022/10/06 05:34:47;;;;;;;37.10;20.63;;;;;;;10.29;100.00;100314.81;5071768;28;20021;-76
2022/10/06 05:37:12;;;;;;;40.80;22.02;;;;;;;10.38;100.00;100314.50;5071797;28;20012;-76
2022/10/06 05:39:37;;;;;;;40.92;24.10;;;;;;;10.65;100.00;100302.22;5070287;28;20060;-76
2022/10/06 05:42:03;;;;;;;53.38;29.10;;;;;;;10.84;100.00;100282.41;5071776;28;20027;-76
2022/10/06 05:44:28;;;;;;;51.38;27.75;;;;;;;11.07;100.00;100310.19;5071408;28;20025;-76
2022/10/06 05:46:53;;;;;;;51.90;25.73;;;;;;;11.10;100.00;100309.25;5071851;28;20394;-76
2022/10/06 05:49:19;;;;;;;39.78;22.33;;;;;;;11.21;100.00;100330.56;5071573;28;20448;-76
2022/10/06 05:51:44;;;;;;;31.63;18.55;;;;;;;11.19;100.00;100333.19;5071525;28;20066;-76
2022/10/06 05:54:10;;;;;;;26.00;17.02;;;;;;;11.27;100.00;100338.13;5071634;28;20379;-76
2022/10/06 05:56:36;;;;;;;27.92;17.10;;;;;;;11.50;100.00;100347.66;5071399;28;20070;-76
2022/10/06 05:59:03;;;;;;;31.55;16.23;;;;;;;11.58;100.00;100340.38;5071542;28;20103;-76
2022/10/06 06:01:39;;;;;;;26.35;17.45;;;;;;;11.64;100.00;100334.94;5071810;28;20020;-76
2022/10/06 06:04:10;;;;;;;31.63;16.02;;;;;;;11.89;100.00;100354.84;5071812;28;20025;-76
2022/10/06 06:06:41;;;;;;;22.58;13.82;;;;;;;12.17;100.00;100357.16;5071309;28;20044;-76
2022/10/06 06:09:07;;;;;;;16.90;10.60;;;;;;;12.52;100.00;100360.06;5071505;28;20028;-76
2022/10/06 06:11:34;;;;;;;13.68;8.88;;;;;;;12.87;100.00;100364.56;5071236;28;20025;-76
2022/10/06 06:14:01;;;;;;;10.00;8.40;;;;;;;13.17;100.00;100370.19;5071623;28;20028;-76
2022/10/06 06:16:31;;;;;;;9.77;7.20;;;;;;;13.54;100.00;100375.50;5071133;28;20048;-77
2022/10/06 06:18:58;;;;;;;10.70;8.02;;;;;;;13.82;100.00;100361.94;5071771;28;20063;-76
2022/10/06 06:21:24;;;;;;;12.02;8.23;;;;;;;14.18;100.00;100380.22;5071109;28;20020;-76
2022/10/06 06:23:49;;;;;;;15.50;9.75;;;;;;;14.41;100.00;100369.47;5071292;28;20376;-76
2022/10/06 06:26:17;;;;;;;9.63;7.82;;;;;;;14.89;100.00;100373.09;5071542;28;20027;-76
2022/10/06 06:28:45;;;;;;;9.43;7.45;;;;;;;15.20;100.00;100377.53;5071242;28;20031;-76
2022/10/06 06:31:13;;;;;;;9.20;7.03;;;;;;;15.50;100.00;100371.53;5071175;28;20520;-76
2022/10/06 06:33:40;;;;;;;8.13;6.18;;;;;;;16.40;100.00;100392.69;5070914;28;20027;-76
2022/10/06 06:36:19;;;;;;;9.00;7.03;;;;;;;17.13;94.56;100399.75;5071132;28;20534;-76
2022/10/06 06:38:48;;;;;;;7.47;6.25;;;;;;;17.18;93.58;100389.75;5072672;28;20071;-76
2022/10/06 06:41:16;;;;;;;10.68;6.60;;;;;;;17.48;92.66;100399.31;5074898;28;20122;-77
2022/10/06 06:43:41;;;;;;;10.35;6.45;;;;;;;17.93;90.51;100392.91;5074517;28;20040;-77
2022/10/06 06:46:07;;;;;;;12.05;6.60;;;;;;;18.29;88.12;100409.91;5075038;28;20016;-76
2022/10/06 06:48:34;;;;;;;7.82;5.85;;;;;;;18.71;87.26;100385.09;5074407;28;20025;-76
2022/10/06 06:51:00;;;;;;;7.25;6.13;;;;;;;19.46;83.17;100408.84;5074543;28;20016;-76
2022/10/06 06:53:25;;;;;;;9.77;6.60;;;;;;;19.61;81.89;100406.94;5074443;28;20108;-77
2022/10/06 06:55:51;;;;;;;11.00;6.18;;;;;;;19.71;80.91;100405.31;5074628;28;20095;-77
2022/10/06 06:58:18;;;;;;;8.52;6.95;;;;;;;20.26;79.82;100422.38;5074549;28;20025;-77
2022/10/06 07:00:43;;;;;;;11.23;6.00;;;;;;;19.89;79.33;100416.38;5074228;28;20680;-77
2022/10/06 07:03:13;;;;;;;9.60;5.82;;;;;;;19.25;79.98;100424.41;5074330;28;20063;-77
2022/10/06 07:05:39;;;;;;;8.73;6.00;;;;;;;18.57;82.00;100433.47;5073788;28;20043;-77
2022/10/06 07:08:08;;;;;;;7.35;6.18;;;;;;;18.02;83.09;100441.53;5074553;28;20099;-77
2022/10/06 07:10:35;;;;;;;9.67;6.37;;;;;;;17.53;85.08;100439.38;5074048;28;20024;-76
2022/10/06 07:13:01;;;;;;;6.50;5.25;;;;;;;17.09;86.12;100435.94;5074160;28;20027;-77
2022/10/06 07:26:30;;;;;;;13.43;5.90;;;;;;;16.15;92.01;100458.13;5031281;28;20072;-76
2022/10/06 07:28:58;;;;;;;6.55;5.85;;;;;;;16.10;92.69;100447.88;5031459;28;20068;-76
2022/10/06 07:31:26;;;;;;;7.32;5.85;;;;;;;16.37;92.51;100449.88;5031446;28;20030;-77
2022/10/06 07:33:52;;;;;;;9.07;5.80;;;;;;;16.61;91.86;100461.59;5031429;28;20037;-76
2022/10/06 07:36:19;;;;;;;9.70;5.75;;;;;;;16.74;91.50;100458.28;5031421;28;20025;-77
2022/10/06 07:38:46;;;;;;;10.65;6.20;;;;;;;16.61;92.07;100456.31;5031149;28;20152;-77
2022/10/06 07:41:12;;;;;;;7.68;5.40;;;;;;;16.46;92.66;100460.69;5031204;28;20029;-77
2022/10/06 07:43:37;;;;;;;7.38;5.75;;;;;;;16.45;93.21;100479.19;5030891;28;20092;-76
2022/10/06 07:46:02;;;;;;;6.03;5.13;;;;;;;16.25;93.72;100472.44;5031210;28;20018;-77
2022/10/06 07:48:28;;;;;;;10.80;5.55;;;;;;;16.18;94.10;100468.44;5030712;28;20048;-76
2022/10/06 07:50:53;;;;;;;7.50;5.28;;;;;;;16.14;94.48;100486.19;5031223;28;20088;-77
2022/10/06 07:53:18;;;;;;;6.72;5.05;;;;;;;16.04;95.01;100468.41;5030965;28;20048;-76
2022/10/06 07:55:46;;;;;;;7.18;5.40;;;;;;;16.09;95.34;100490.84;5014044;28;20025;-77
2022/10/06 07:58:14;;;;;;;7.15;5.47;;;;;;;16.35;95.20;100494.66;5031000;28;20112;-76
2022/10/06 08:00:41;;;;;;;7.72;5.38;;;;;;;16.60;94.70;100491.47;5030868;28;20156;-76
2022/10/06 08:03:08;;;;;;;6.40;5.28;;;;;;;16.84;94.06;100497.06;5048855;28;20040;-76
2022/10/06 08:05:33;;;;;;;6.30;5.22;;;;;;;17.19;93.43;100497.63;5072676;28;20052;-77
2022/10/06 08:07:58;;;;;;;7.70;4.50;;;;;;;17.30;92.60;100493.47;5073096;28;20142;-76
2022/10/06 08:10:24;;;;;;;7.35;5.07;;;;;;;17.54;91.93;100510.41;5072896;28;20398;-77
2022/10/06 08:12:49;;;;;;;7.18;5.20;;;;;;;17.56;91.24;100502.41;5071291;28;20551;-76
2022/10/06 08:15:15;;;;;;;6.68;4.53;;;;;;;17.65;91.33;100525.53;5073065;28;20024;-76
2022/10/06 08:17:41;;;;;;;6.35;4.50;;;;;;;17.95;91.39;100528.94;5072717;28;20510;-76
2022/10/06 08:20:09;;;;;;;6.40;4.80;;;;;;;18.26;90.36;100529.59;5072865;28;20073;-76
2022/10/06 08:22:35;;;;;;;6.72;4.32;;;;;;;18.18;89.78;100522.19;5072518;28;20021;-76
2022/10/06 08:25:01;;;;;;;8.95;4.40;;;;;;;18.07;90.41;100544.91;5072910;28;20032;-77
2022/10/06 08:27:28;;;;;;;8.75;5.00;;;;;;;17.78;90.61;100539.69;5072819;28;20376;-76
2022/10/06 08:29:54;;;;;;;5.43;4.32;;;;;;;17.50;91.13;100534.41;5072518;28;20028;-76
2022/10/06 08:32:21;;;;;;;8.95;4.20;;;;;;;17.35;92.17;100559.88;5072471;28;20027;-76
2022/10/06 08:34:47;;;;;;;6.30;4.55;;;;;;;17.12;93.04;100558.63;5072325;28;20367;-77
2022/10/06 08:37:14;;;;;;;5.30;3.97;;;;;;;17.02;94.14;100565.34;5072566;28;20048;-76
2022/10/06 08:39:41;;;;;;;7.82;4.53;;;;;;;16.90;94.75;100557.25;5072483;28;20021;-77
2022/10/06 08:42:13;;;;;;;9.02;3.92;;;;;;;17.00;95.00;100567.25;5072602;28;20024;-77
2022/10/06 08:44:43;;;;;;;10.70;5.43;;;;;;;17.06;95.13;100572.97;5072254;28;20025;-77
2022/10/06 08:47:21;;;;;;;7.45;4.90;;;;;;;17.13;94.98;100555.88;5072802;28;20048;-77
2022/10/06 08:49:48;;;;;;;9.45;4.85;;;;;;;17.39;94.32;100545.56;5072045;28;20033;-76
2022/10/06 08:52:40;;;;;;;5.13;4.00;;;;;;;17.68;93.57;100546.44;5072382;28;20023;-76
2022/10/06 08:55:24;;;;;;;5.10;3.80;;;;;;;17.84;92.71;100576.19;5072366;28;20099;-76
2022/10/06 08:58:22;;;;;;;5.38;3.92;;;;;;;17.89;92.49;100587.28;5072087;28;20109;-76
2022/10/06 09:00:47;;;;;;;4.90;3.92;;;;;;;18.02;92.00;100604.97;5009222;28;20501;-77
2022/10/06 09:03:22;;;;;;;4.85;3.75;;;;;;;18.08;91.56;100602.81;5010075;28;20033;-77
2022/10/06 09:05:55;;;;;;;5.68;3.65;;;;;;;18.09;91.18;100604.50;5009486;28;20038;-77
2022/10/06 09:08:35;;;;;;;6.05;4.03;;;;;;;18.01;91.24;100608.56;5010041;28;20438;-76
2022/10/06 09:11:24;;;;;;;4.93;4.10;;;;;;;18.01;91.32;100612.03;5009919;28;20042;-77
2022/10/06 09:13:55;;;;;;;6.32;4.10;;;;;;;17.92;90.95;100613.47;5009699;28;20116;-77
2022/10/06 09:16:31;;;;;;;6.93;3.60;;;;;;;17.87;91.19;100602.38;5009922;28;20029;-77
2022/10/06 09:19:03;;;;;;;9.48;3.75;;;;;;;17.76;90.57;100617.97;5009578;28;20037;-77
2022/10/06 09:21:37;;;;;;;3.53;3.22;;;;;;;17.53;90.33;100618.47;5009996;28;20030;-77
2022/10/06 09:24:12;;;;;;;4.45;3.20;;;;;;;17.42;90.78;100630.50;5009922;28;20029;-77
2022/10/06 09:26:42;;;;;;;6.75;3.47;;;;;;;17.27;91.17;100622.66;5009654;28;20084;-77
2022/10/06 09:29:08;;;;;;;3.65;3.25;;;;;;;17.20;90.99;100630.94;5009900;28;20048;-76
2022/10/06 09:31:37;;;;;;;5.03;3.63;;;;;;;17.07;91.38;100621.22;5009660;28;20481;-77
2022/10/06 09:34:23;;;;;;;5.78;3.53;;;;;;;16.98;91.39;100635.75;5009718;28;20483;-76
2022/10/06 09:36:58;;;;;;;8.75;3.22;;;;;;;16.93;91.34;100630.72;5023148;28;20098;-76
2022/10/06 09:39:25;;;;;;;4.47;2.70;;;;;;;16.95;91.08;100647.31;5071839;28;20107;-76
2022/10/06 09:41:50;;;;;;;5.35;2.72;;;;;;;16.95;91.05;100635.94;5071549;28;20028;-77
2022/10/06 09:44:28;;;;;;;3.88;2.60;;;;;;;17.05;91.08;100654.66;5071712;28;20077;-76
2022/10/06 09:46:54;;;;;;;4.47;3.17;;;;;;;17.12;90.49;100663.91;5071670;28;20042;-76
2022/10/06 09:49:24;;;;;;;13.23;3.65;;;;;;;17.03;90.99;100664.44;5071735;28;20502;-77
2022/10/06 09:52:10;;;;;;;3.58;2.60;;;;;;;17.02;90.92;100670.63;5071626;28;20066;-77
2022/10/06 09:54:37;;;;;;;3.28;2.60;;;;;;;16.93;90.72;100666.72;5071443;28;20119;-76
2022/10/06 09:57:17;;;;;;;3.42;2.30;;;;;;;16.95;90.53;100678.03;5071850;28;20459;-77
2022/10/06 09:59:45;;;;;;;6.28;2.50;;;;;;;16.85;90.14;100669.78;5071542;28;20021;-77
2022/10/06 10:02:27;;;;;;;6.10;2.30;;;;;;;16.89;89.78;100683.63;5071635;28;20028;-76
2022/10/06 10:04:54;;;;;;;3.03;2.25;;;;;;;16.86;89.29;100694.34;5071320;28;20086;-76
2022/10/06 10:07:26;;;;;;;7.88;2.42;;;;;;;16.81;88.53;100681.44;5070252;28;20040;-76
2022/10/06 10:09:53;;;;;;;2.28;1.92;;;;;;;16.89;88.12;100688.88;5071315;28;20024;-76
2022/10/06 10:12:32;;;;;;;1.88;1.77;;;;;;;17.02;87.71;100704.84;5071473;28;20024;-76
2022/10/06 10:15:30;;;;;;;2.58;2.10;;;;;;;17.09;87.49;100706.19;5075071;28;20468;-77
2022/10/06 10:17:56;;;;;;;2.70;1.92;;;;;;;17.10;87.67;100710.50;5012966;28;20509;-77
2022/10/06 10:20:27;;;;;;;4.10;1.77;;;;;;;17.15;87.59;100717.25;5013140;28;20021;-77
2022/10/06 10:22:54;;;;;;;2.65;2.22;;;;;;;17.19;87.16;100716.13;5012744;28;20049;-76
2022/10/06 10:25:49;;;;;;;3.30;1.90;;;;;;;17.24;86.37;100725.53;5012939;28;20029;-77
2022/10/06 10:28:35;;;;;;;2.08;1.50;;;;;;;17.24;85.70;100726.41;5012890;28;20403;-77
2022/10/06 10:31:12;;;;;;;2.88;1.80;;;;;;;17.24;85.57;100731.66;5012777;28;20397;-76
2022/10/06 10:33:48;;;;;;;3.13;2.10;;;;;;;17.21;85.11;100713.41;5012627;28;20066;-76
2022/10/06 10:36:16;;;;;;;2.13;1.60;;;;;;;17.32;83.92;100733.81;5012655;28;20041;-77
2022/10/06 10:38:45;;;;;;;3.80;1.67;;;;;;;17.25;83.19;100725.44;5012511;28;20439;-76
2022/10/06 10:41:41;;;;;;;1.63;1.52;;;;;;;17.30;81.91;100740.97;5012657;28;20033;-77
2022/10/06 10:44:19;;;;;;;2.13;1.60;;;;;;;17.27;81.26;100743.78;4993316;28;20057;-76
2022/10/06 10:46:50;;;;;;;4.00;1.77;;;;;;;17.22;80.70;100736.16;4992870;28;20378;-76
2022/10/06 10:49:19;;;;;;;2.53;1.75;;;;;;;17.33;80.33;100740.81;4992789;28;20039;-76
2022/10/06 10:51:51;;;;;;;2.63;1.75;;;;;;;17.32;80.14;100736.47;4992452;28;20033;-77
2022/10/06 10:54:23;;;;;;;2.72;1.52;;;;;;;17.36;79.24;100743.25;5014189;28;20049;-76
2022/10/06 10:56:51;;;;;;;1.65;1.42;;;;;;;17.39;79.36;100748.34;5051740;28;20071;-77
2022/10/06 10:59:29;;;;;;;2.10;1.60;;;;;;;17.49;79.15;100757.44;5052087;28;20029;-76
2022/10/06 11:02:17;;;;;;;2.45;1.50;;;;;;;17.62;78.86;100760.22;5051760;28;20029;-76
2022/10/06 11:04:46;;;;;;;2.55;1.35;;;;;;;17.85;78.06;100761.50;5051871;28;20369;-76
2022/10/06 11:07:26;;;;;;;2.70;1.70;;;;;;;17.90;77.48;100762.94;5051676;28;20041;-77
2022/10/06 11:10:00;;;;;;;4.00;1.67;;;;;;;17.82;77.36;100756.41;5051609;28;20538;-76
2022/10/06 11:13:03;;;;;;;1.65;1.30;;;;;;;17.77;77.03;100771.66;5051822;28;20033;-76
2022/10/06 11:15:52;;;;;;;2.85;1.52;;;;;;;17.89;77.11;100771.78;5051687;28;20033;-77
2022/10/06 11:18:33;;;;;;;3.55;1.20;;;;;;;18.02;76.20;100771.06;5051684;28;20086;-76
2022/10/06 11:21:08;;;;;;;2.30;1.45;;;;;;;18.00;76.11;100767.69;5064085;28;20041;-76
2022/10/06 11:23:50;;;;;;;2.58;1.55;;;;;;;18.08;75.41;100760.16;5073421;28;20056;-77
2022/10/06 11:26:27;;;;;;;7.40;1.77;;;;;;;18.19;75.22;100760.34;5074113;28;20095;-77
2022/10/06 11:28:52;;;;;;;3.63;1.92;;;;;;;18.33;75.01;100770.91;5073872;28;20111;-76
2022/10/06 11:31:32;;;;;;;2.47;1.63;;;;;;;18.29;75.13;100761.50;5073954;28;20095;-77
2022/10/06 11:34:00;;;;;;;2.72;1.60;;;;;;;18.23;73.79;100756.56;5073635;28;20016;-77